sensor_id;sensor_type;location;lat;lon;timestamp;temperature;humidity
28171;DHT22;15458;53.346;-1.688;2022-11-15T00:00:26;9.60;99.90
28171;DHT22;15458;53.346;-1.688;2022-11-15T00:02:55;9.50;99.90
28171;DHT22;15458;53.346;-1.688;2022-11-15T00:05:21;9.50;99.90
28171;DHT22;15458;53.346;-1.688;2022-11-15T00:07:46;9.50;99.90
28171;DHT22;15458;53.346;-1.688;2022-11-15T00:10:12;9.40;99.90
28171;DHT22;15458;53.346;-1.688;2022-11-15T00:12:38;9.30;99.90
28171;DHT22;15458;53.346;-1.688;2022-11-15T00:15:04;9.30;99.90
28171;DHT22;15458;53.346;-1.688;2022-11-15T00:17:30;9.20;99.90
28171;DHT22;15458;53.346;-1.688;2022-11-15T00:19:56;9.20;99.90
28171;DHT22;15458;53.346;-1.688;2022-11-15T00:22:21;9.20;99.90
28171;DHT22;15458;53.346;-1.688;2022-11-15T00:24:47;9.10;99.90
28171;DHT22;15458;53.346;-1.688;2022-11-15T00:27:13;9.10;99.90
28171;DHT22;15458;53.346;-1.688;2022-11-15T00:29:38;9.00;99.90
28171;DHT22;15458;53.346;-1.688;2022-11-15T00:32:09;9.00;99.90
28171;DHT22;15458;53.346;-1.688;2022-11-15T00:34:35;8.90;99.90
28171;DHT22;15458;53.346;-1.688;2022-11-15T00:37:00;8.90;99.90
28171;DHT22;15458;53.346;-1.688;2022-11-15T00:39:26;8.90;99.90
28171;DHT22;15458;53.346;-1.688;2022-11-15T00:41:51;8.90;99.90
28171;DHT22;15458;53.346;-1.688;2022-11-15T00:44:18;8.90;99.90
28171;DHT22;15458;53.346;-1.688;2022-11-15T00:46:44;8.80;99.90
28171;DHT22;15458;53.346;-1.688;2022-11-15T00:49:10;8.80;99.90
28171;DHT22;15458;53.346;-1.688;2022-11-15T00:51:35;8.80;99.90
28171;DHT22;15458;53.346;-1.688;2022-11-15T00:54:01;8.70;99.90
28171;DHT22;15458;53.346;-1.688;2022-11-15T00:56:26;8.60;99.90
28171;DHT22;15458;53.346;-1.688;2022-11-15T00:58:53;8.60;99.90
28171;DHT22;15458;53.346;-1.688;2022-11-15T01:01:19;8.60;99.90
28171;DHT22;15458;53.346;-1.688;2022-11-15T01:03:44;8.50;99.90
28171;DHT22;15458;53.346;-1.688;2022-11-15T01:06:10;8.50;99.90
28171;DHT22;15458;53.346;-1.688;2022-11-15T01:08:38;8.50;99.90
28171;DHT22;15458;53.346;-1.688;2022-11-15T01:11:07;8.40;99.90
28171;DHT22;15458;53.346;-1.688;2022-11-15T01:13:36;8.40;99.90
28171;DHT22;15458;53.346;-1.688;2022-11-15T01:16:13;8.40;99.90
28171;DHT22;15458;53.346;-1.688;2022-11-15T01:18:39;8.30;99.90
28171;DHT22;15458;53.346;-1.688;2022-11-15T01:21:16;8.30;99.90
28171;DHT22;15458;53.346;-1.688;2022-11-15T01:23:42;8.30;99.90
28171;DHT22;15458;53.346;-1.688;2022-11-15T01:26:11;8.30;99.90
28171;DHT22;15458;53.346;-1.688;2022-11-15T01:28:39;8.20;99.90
28171;DHT22;15458;53.346;-1.688;2022-11-15T01:31:08;8.20;99.90
28171;DHT22;15458;53.346;-1.688;2022-11-15T01:33:35;8.20;99.90
28171;DHT22;15458;53.346;-1.688;2022-11-15T01:36:06;8.20;99.90
28171;DHT22;15458;53.346;-1.688;2022-11-15T01:38:34;8.10;99.90
28171;DHT22;15458;53.346;-1.688;2022-11-15T01:41:00;8.10;99.90
28171;DHT22;15458;53.346;-1.688;2022-11-15T01:43:28;8.10;99.90
28171;DHT22;15458;53.346;-1.688;2022-11-15T01:46:17;8.10;99.90
28171;DHT22;15458;53.346;-1.688;2022-11-15T01:48:45;8.00;99.90
28171;DHT22;15458;53.346;-1.688;2022-11-15T01:51:13;8.00;99.90
28171;DHT22;15458;53.346;-1.688;2022-11-15T01:53:45;8.00;99.90
28171;DHT22;15458;53.346;-1.688;2022-11-15T01:56:17;8.00;99.90
28171;DHT22;15458;53.346;-1.688;2022-11-15T01:58:45;8.00;99.90
28171;DHT22;15458;53.346;-1.688;2022-11-15T02:01:13;8.00;99.90
28171;DHT22;15458;53.346;-1.688;2022-11-15T02:03:48;8.00;99.90
28171;DHT22;15458;53.346;-1.688;2022-11-15T02:06:16;8.00;99.90
28171;DHT22;15458;53.346;-1.688;2022-11-15T02:08:42;8.00;99.90
28171;DHT22;15458;53.346;-1.688;2022-11-15T02:11:09;7.90;99.90
28171;DHT22;15458;53.346;-1.688;2022-11-15T02:13:35;7.90;99.90
28171;DHT22;15458;53.346;-1.688;2022-11-15T02:19:08;7.90;99.90
28171;DHT22;15458;53.346;-1.688;2022-11-15T02:32:44;7.90;99.90
28171;DHT22;15458;53.346;-1.688;2022-11-15T02:35:21;7.90;99.90
28171;DHT22;15458;53.346;-1.688;2022-11-15T02:37:58;8.00;99.90
28171;DHT22;15458;53.346;-1.688;2022-11-15T02:43:11;8.00;99.90
28171;DHT22;15458;53.346;-1.688;2022-11-15T02:46:14;8.00;99.90
28171;DHT22;15458;53.346;-1.688;2022-11-15T02:48:43;8.00;99.90
28171;DHT22;15458;53.346;-1.688;2022-11-15T02:51:10;8.00;99.90
28171;DHT22;15458;53.346;-1.688;2022-11-15T02:53:37;8.00;99.90
28171;DHT22;15458;53.346;-1.688;2022-11-15T02:56:03;8.00;99.90
28171;DHT22;15458;53.346;-1.688;2022-11-15T03:04:31;8.00;99.90
28171;DHT22;15458;53.346;-1.688;2022-11-15T03:07:13;8.00;99.90
28171;DHT22;15458;53.346;-1.688;2022-11-15T03:09:56;8.00;99.90
28171;DHT22;15458;53.346;-1.688;2022-11-15T03:12:25;8.00;99.90
28171;DHT22;15458;53.346;-1.688;2022-11-15T03:15:01;8.00;99.90
28171;DHT22;15458;53.346;-1.688;2022-11-15T03:17:36;8.00;99.90
28171;DHT22;15458;53.346;-1.688;2022-11-15T03:20:05;8.00;99.90
28171;DHT22;15458;53.346;-1.688;2022-11-15T03:22:38;8.10;99.90
28171;DHT22;15458;53.346;-1.688;2022-11-15T03:25:07;8.10;99.90
28171;DHT22;15458;53.346;-1.688;2022-11-15T03:27:37;8.10;99.90
28171;DHT22;15458;53.346;-1.688;2022-11-15T03:30:05;8.20;99.90
28171;DHT22;15458;53.346;-1.688;2022-11-15T03:32:35;8.20;99.90
28171;DHT22;15458;53.346;-1.688;2022-11-15T03:40:00;8.20;99.90
28171;DHT22;15458;53.346;-1.688;2022-11-15T03:45:23;8.30;99.90
28171;DHT22;15458;53.346;-1.688;2022-11-15T03:48:01;8.30;99.90
28171;DHT22;15458;53.346;-1.688;2022-11-15T03:50:28;8.30;99.90
28171;DHT22;15458;53.346;-1.688;2022-11-15T03:52:55;8.40;99.90
28171;DHT22;15458;53.346;-1.688;2022-11-15T03:55:21;8.40;99.90
28171;DHT22;15458;53.346;-1.688;2022-11-15T03:57:49;8.40;99.90
28171;DHT22;15458;53.346;-1.688;2022-11-15T04:00:16;8.50;99.90
28171;DHT22;15458;53.346;-1.688;2022-11-15T04:02:42;8.50;99.90
28171;DHT22;15458;53.346;-1.688;2022-11-15T04:05:08;8.50;99.90
28171;DHT22;15458;53.346;-1.688;2022-11-15T04:07:33;8.50;99.90
28171;DHT22;15458;53.346;-1.688;2022-11-15T04:09:59;8.60;99.90
28171;DHT22;15458;53.346;-1.688;2022-11-15T04:12:32;8.60;99.90
28171;DHT22;15458;53.346;-1.688;2022-11-15T04:15:00;8.60;99.90
28171;DHT22;15458;53.346;-1.688;2022-11-15T04:17:32;8.60;99.90
28171;DHT22;15458;53.346;-1.688;2022-11-15T04:19:58;8.60;99.90
28171;DHT22;15458;53.346;-1.688;2022-11-15T04:22:42;8.70;99.90
28171;DHT22;15458;53.346;-1.688;2022-11-15T04:25:26;8.70;99.90
28171;DHT22;15458;53.346;-1.688;2022-11-15T04:27:52;8.70;99.90
28171;DHT22;15458;53.346;-1.688;2022-11-15T04:30:17;8.70;99.90
28171;DHT22;15458;53.346;-1.688;2022-11-15T04:32:43;8.70;99.90
28171;DHT22;15458;53.346;-1.688;2022-11-15T04:35:09;8.70;99.90
28171;DHT22;15458;53.346;-1.688;2022-11-15T04:37:34;8.70;99.90
28171;DHT22;15458;53.346;-1.688;2022-11-15T04:40:00;8.80;99.90
28171;DHT22;15458;53.346;-1.688;2022-11-15T04:42:26;8.80;99.90
28171;DHT22;15458;53.346;-1.688;2022-11-15T04:44:51;8.80;99.90
28171;DHT22;15458;53.346;-1.688;2022-11-15T04:47:17;8.80;99.90
28171;DHT22;15458;53.346;-1.688;2022-11-15T04:49:42;8.80;99.90
28171;DHT22;15458;53.346;-1.688;2022-11-15T04:52:09;8.90;99.90
28171;DHT22;15458;53.346;-1.688;2022-11-15T04:54:34;8.90;99.90
28171;DHT22;15458;53.346;-1.688;2022-11-15T04:57:00;8.90;99.90
28171;DHT22;15458;53.346;-1.688;2022-11-15T04:59:26;8.90;99.90
28171;DHT22;15458;53.346;-1.688;2022-11-15T05:01:54;8.90;99.90
28171;DHT22;15458;53.346;-1.688;2022-11-15T05:04:19;8.90;99.90
28171;DHT22;15458;53.346;-1.688;2022-11-15T05:06:49;9.00;99.90
28171;DHT22;15458;53.346;-1.688;2022-11-15T05:09:19;8.90;99.90
28171;DHT22;15458;53.346;-1.688;2022-11-15T05:11:45;8.90;99.90
28171;DHT22;15458;53.346;-1.688;2022-11-15T05:14:12;8.90;99.90
28171;DHT22;15458;53.346;-1.688;2022-11-15T05:16:38;8.90;99.90
28171;DHT22;15458;53.346;-1.688;2022-11-15T05:19:05;8.90;99.90
28171;DHT22;15458;53.346;-1.688;2022-11-15T05:21:31;8.90;99.90
28171;DHT22;15458;53.346;-1.688;2022-11-15T05:23:57;8.90;99.90
28171;DHT22;15458;53.346;-1.688;2022-11-15T05:26:22;8.90;99.90
28171;DHT22;15458;53.346;-1.688;2022-11-15T05:28:52;8.80;99.90
28171;DHT22;15458;53.346;-1.688;2022-11-15T05:31:19;8.80;99.90
28171;DHT22;15458;53.346;-1.688;2022-11-15T05:33:44;8.80;99.90
28171;DHT22;15458;53.346;-1.688;2022-11-15T05:38:43;8.80;99.90
28171;DHT22;15458;53.346;-1.688;2022-11-15T05:41:09;8.80;99.90
28171;DHT22;15458;53.346;-1.688;2022-11-15T05:43:38;8.80;99.90
28171;DHT22;15458;53.346;-1.688;2022-11-15T05:46:05;8.80;99.90
28171;DHT22;15458;53.346;-1.688;2022-11-15T05:48:31;8.80;99.90
28171;DHT22;15458;53.346;-1.688;2022-11-15T05:50:58;8.80;99.90
28171;DHT22;15458;53.346;-1.688;2022-11-15T05:53:25;8.80;99.90
28171;DHT22;15458;53.346;-1.688;2022-11-15T05:55:51;8.80;99.90
28171;DHT22;15458;53.346;-1.688;2022-11-15T05:58:18;8.80;99.90
28171;DHT22;15458;53.346;-1.688;2022-11-15T06:00:44;8.80;99.90
28171;DHT22;15458;53.346;-1.688;2022-11-15T06:03:10;8.80;99.90
28171;DHT22;15458;53.346;-1.688;2022-11-15T06:05:35;8.80;99.90
28171;DHT22;15458;53.346;-1.688;2022-11-15T06:08:01;8.80;99.90
28171;DHT22;15458;53.346;-1.688;2022-11-15T06:10:27;8.80;99.90
28171;DHT22;15458;53.346;-1.688;2022-11-15T06:13:00;8.80;99.90
28171;DHT22;15458;53.346;-1.688;2022-11-15T06:15:26;8.80;99.90
28171;DHT22;15458;53.346;-1.688;2022-11-15T06:17:52;8.80;99.90
28171;DHT22;15458;53.346;-1.688;2022-11-15T06:20:23;8.80;99.90
28171;DHT22;15458;53.346;-1.688;2022-11-15T06:22:48;8.80;99.90
28171;DHT22;15458;53.346;-1.688;2022-11-15T06:25:14;8.80;99.90
28171;DHT22;15458;53.346;-1.688;2022-11-15T06:27:40;8.80;99.90
28171;DHT22;15458;53.346;-1.688;2022-11-15T06:30:06;8.80;99.90
28171;DHT22;15458;53.346;-1.688;2022-11-15T06:32:32;8.80;99.90
28171;DHT22;15458;53.346;-1.688;2022-11-15T06:34:57;8.80;99.90
28171;DHT22;15458;53.346;-1.688;2022-11-15T06:37:23;8.80;99.90
28171;DHT22;15458;53.346;-1.688;2022-11-15T06:39:48;8.80;99.90
28171;DHT22;15458;53.346;-1.688;2022-11-15T06:42:14;8.80;99.90
28171;DHT22;15458;53.346;-1.688;2022-11-15T06:44:40;8.80;99.90
28171;DHT22;15458;53.346;-1.688;2022-11-15T06:47:05;8.80;99.90
28171;DHT22;15458;53.346;-1.688;2022-11-15T06:49:31;8.80;99.90
28171;DHT22;15458;53.346;-1.688;2022-11-15T06:51:56;8.80;99.90
28171;DHT22;15458;53.346;-1.688;2022-11-15T06:54:22;8.90;99.90
28171;DHT22;15458;53.346;-1.688;2022-11-15T06:56:47;8.80;99.90
28171;DHT22;15458;53.346;-1.688;2022-11-15T06:59:13;8.90;99.90
28171;DHT22;15458;53.346;-1.688;2022-11-15T07:01:39;8.90;99.90
28171;DHT22;15458;53.346;-1.688;2022-11-15T07:04:04;8.90;99.90
28171;DHT22;15458;53.346;-1.688;2022-11-15T07:06:30;8.90;99.90
28171;DHT22;15458;53.346;-1.688;2022-11-15T07:08:55;8.90;99.90
28171;DHT22;15458;53.346;-1.688;2022-11-15T07:11:21;8.90;99.90
28171;DHT22;15458;53.346;-1.688;2022-11-15T07:13:47;9.00;99.90
28171;DHT22;15458;53.346;-1.688;2022-11-15T07:16:12;9.00;99.90
28171;DHT22;15458;53.346;-1.688;2022-11-15T07:18:39;9.00;99.90
28171;DHT22;15458;53.346;-1.688;2022-11-15T07:21:07;9.00;99.90
28171;DHT22;15458;53.346;-1.688;2022-11-15T07:23:35;9.00;99.90
28171;DHT22;15458;53.346;-1.688;2022-11-15T07:26:01;9.00;99.90
28171;DHT22;15458;53.346;-1.688;2022-11-15T07:28:27;9.10;99.90
28171;DHT22;15458;53.346;-1.688;2022-11-15T07:30:53;9.10;99.90
28171;DHT22;15458;53.346;-1.688;2022-11-15T07:33:18;9.10;99.90
28171;DHT22;15458;53.346;-1.688;2022-11-15T07:35:44;9.10;99.90
28171;DHT22;15458;53.346;-1.688;2022-11-15T07:38:13;9.10;99.90
28171;DHT22;15458;53.346;-1.688;2022-11-15T07:40:40;9.20;99.90
28171;DHT22;15458;53.346;-1.688;2022-11-15T07:43:07;9.20;99.90
28171;DHT22;15458;53.346;-1.688;2022-11-15T07:45:33;9.20;99.90
28171;DHT22;15458;53.346;-1.688;2022-11-15T07:48:05;9.20;99.90
28171;DHT22;15458;53.346;-1.688;2022-11-15T07:50:31;9.20;99.90
28171;DHT22;15458;53.346;-1.688;2022-11-15T07:52:57;9.20;99.90
28171;DHT22;15458;53.346;-1.688;2022-11-15T07:55:24;9.20;99.90
28171;DHT22;15458;53.346;-1.688;2022-11-15T07:57:50;9.30;99.90
28171;DHT22;15458;53.346;-1.688;2022-11-15T08:00:16;9.30;99.90
28171;DHT22;15458;53.346;-1.688;2022-11-15T08:02:42;9.30;99.90
28171;DHT22;15458;53.346;-1.688;2022-11-15T08:05:07;9.30;99.90
28171;DHT22;15458;53.346;-1.688;2022-11-15T08:07:33;9.30;99.90
28171;DHT22;15458;53.346;-1.688;2022-11-15T08:09:59;9.40;99.90
28171;DHT22;15458;53.346;-1.688;2022-11-15T08:12:27;9.40;99.90
28171;DHT22;15458;53.346;-1.688;2022-11-15T08:14:54;9.40;99.90
28171;DHT22;15458;53.346;-1.688;2022-11-15T08:17:20;9.40;99.90
28171;DHT22;15458;53.346;-1.688;2022-11-15T08:19:46;9.40;99.90
28171;DHT22;15458;53.346;-1.688;2022-11-15T08:22:11;9.40;99.90
28171;DHT22;15458;53.346;-1.688;2022-11-15T08:24:38;9.40;99.90
28171;DHT22;15458;53.346;-1.688;2022-11-15T08:27:03;9.50;99.90
28171;DHT22;15458;53.346;-1.688;2022-11-15T08:29:29;9.50;99.90
28171;DHT22;15458;53.346;-1.688;2022-11-15T08:31:55;9.50;99.90
28171;DHT22;15458;53.346;-1.688;2022-11-15T08:34:21;9.50;99.90
28171;DHT22;15458;53.346;-1.688;2022-11-15T08:36:47;9.50;99.90
28171;DHT22;15458;53.346;-1.688;2022-11-15T08:39:13;9.50;99.90
28171;DHT22;15458;53.346;-1.688;2022-11-15T08:41:39;9.60;99.90
28171;DHT22;15458;53.346;-1.688;2022-11-15T08:44:05;9.60;99.90
28171;DHT22;15458;53.346;-1.688;2022-11-15T08:46:30;9.60;99.90
28171;DHT22;15458;53.346;-1.688;2022-11-15T08:48:56;9.60;99.90
28171;DHT22;15458;53.346;-1.688;2022-11-15T08:51:22;9.60;99.90
28171;DHT22;15458;53.346;-1.688;2022-11-15T08:53:47;9.60;99.90
28171;DHT22;15458;53.346;-1.688;2022-11-15T08:56:14;9.70;99.90
28171;DHT22;15458;53.346;-1.688;2022-11-15T08:58:40;9.70;99.90
28171;DHT22;15458;53.346;-1.688;2022-11-15T09:01:06;9.70;99.90
28171;DHT22;15458;53.346;-1.688;2022-11-15T09:03:32;9.70;99.90
28171;DHT22;15458;53.346;-1.688;2022-11-15T09:05:59;9.70;99.90
28171;DHT22;15458;53.346;-1.688;2022-11-15T09:08:26;9.70;99.90
28171;DHT22;15458;53.346;-1.688;2022-11-15T09:10:54;9.80;99.90
28171;DHT22;15458;53.346;-1.688;2022-11-15T09:13:20;9.80;99.90
28171;DHT22;15458;53.346;-1.688;2022-11-15T09:15:45;9.80;99.90
28171;DHT22;15458;53.346;-1.688;2022-11-15T09:18:11;9.90;99.90
28171;DHT22;15458;53.346;-1.688;2022-11-15T09:20:37;9.90;99.90
28171;DHT22;15458;53.346;-1.688;2022-11-15T09:23:03;9.90;99.90
28171;DHT22;15458;53.346;-1.688;2022-11-15T09:25:30;9.90;99.90
28171;DHT22;15458;53.346;-1.688;2022-11-15T09:27:56;9.90;99.90
28171;DHT22;15458;53.346;-1.688;2022-11-15T09:30:23;9.90;99.90
28171;DHT22;15458;53.346;-1.688;2022-11-15T09:32:49;10.00;99.90
28171;DHT22;15458;53.346;-1.688;2022-11-15T09:35:14;10.00;99.90
28171;DHT22;15458;53.346;-1.688;2022-11-15T09:37:40;10.00;99.90
28171;DHT22;15458;53.346;-1.688;2022-11-15T09:40:12;10.00;99.90
28171;DHT22;15458;53.346;-1.688;2022-11-15T09:45:31;10.10;99.90
28171;DHT22;15458;53.346;-1.688;2022-11-15T09:50:53;10.10;99.90
28171;DHT22;15458;53.346;-1.688;2022-11-15T09:53:25;10.10;99.90
28171;DHT22;15458;53.346;-1.688;2022-11-15T09:58:36;10.10;99.90
28171;DHT22;15458;53.346;-1.688;2022-11-15T10:01:08;10.10;99.90
28171;DHT22;15458;53.346;-1.688;2022-11-15T10:03:39;10.10;99.90
28171;DHT22;15458;53.346;-1.688;2022-11-15T10:06:21;10.10;99.90
28171;DHT22;15458;53.346;-1.688;2022-11-15T10:11:23;10.10;99.90
28171;DHT22;15458;53.346;-1.688;2022-11-15T10:13:52;10.10;99.90
28171;DHT22;15458;53.346;-1.688;2022-11-15T10:19:13;10.10;99.90
28171;DHT22;15458;53.346;-1.688;2022-11-15T10:24:41;10.10;99.90
28171;DHT22;15458;53.346;-1.688;2022-11-15T10:27:14;10.10;99.90
28171;DHT22;15458;53.346;-1.688;2022-11-15T10:29:50;10.10;99.90
28171;DHT22;15458;53.346;-1.688;2022-11-15T10:32:19;10.10;99.90
28171;DHT22;15458;53.346;-1.688;2022-11-15T10:34:48;10.10;99.90
28171;DHT22;15458;53.346;-1.688;2022-11-15T10:37:14;10.10;99.90
28171;DHT22;15458;53.346;-1.688;2022-11-15T10:40:27;10.20;99.90
28171;DHT22;15458;53.346;-1.688;2022-11-15T10:43:24;10.20;99.90
28171;DHT22;15458;53.346;-1.688;2022-11-15T10:45:51;10.20;99.90
28171;DHT22;15458;53.346;-1.688;2022-11-15T10:50:45;10.20;99.90
28171;DHT22;15458;53.346;-1.688;2022-11-15T10:56:00;10.30;99.90
28171;DHT22;15458;53.346;-1.688;2022-11-15T11:01:16;10.30;99.90
28171;DHT22;15458;53.346;-1.688;2022-11-15T11:03:44;10.40;99.90
28171;DHT22;15458;53.346;-1.688;2022-11-15T11:06:17;10.40;99.90
28171;DHT22;15458;53.346;-1.688;2022-11-15T11:11:23;10.50;99.90
28171;DHT22;15458;53.346;-1.688;2022-11-15T11:13:50;10.40;99.90
28171;DHT22;15458;53.346;-1.688;2022-11-15T11:21:40;10.50;99.90
28171;DHT22;15458;53.346;-1.688;2022-11-15T11:27:46;10.60;99.90
28171;DHT22;15458;53.346;-1.688;2022-11-15T11:30:23;10.60;99.90
28171;DHT22;15458;53.346;-1.688;2022-11-15T11:33:24;10.60;99.90
28171;DHT22;15458;53.346;-1.688;2022-11-15T11:36:18;10.60;99.90
28171;DHT22;15458;53.346;-1.688;2022-11-15T11:44:48;10.70;99.90
28171;DHT22;15458;53.346;-1.688;2022-11-15T11:47:24;10.70;99.90
28171;DHT22;15458;53.346;-1.688;2022-11-15T11:49:59;10.70;99.90
28171;DHT22;15458;53.346;-1.688;2022-11-15T11:52:37;10.70;99.90
28171;DHT22;15458;53.346;-1.688;2022-11-15T11:55:21;10.70;99.90
28171;DHT22;15458;53.346;-1.688;2022-11-15T11:57:54;10.70;99.90
28171;DHT22;15458;53.346;-1.688;2022-11-15T12:00:25;10.80;99.90
28171;DHT22;15458;53.346;-1.688;2022-11-15T12:05:49;10.80;99.90
28171;DHT22;15458;53.346;-1.688;2022-11-15T12:10:48;10.80;99.90
28171;DHT22;15458;53.346;-1.688;2022-11-15T12:13:21;10.90;99.90
28171;DHT22;15458;53.346;-1.688;2022-11-15T12:16:18;10.90;99.90
28171;DHT22;15458;53.346;-1.688;2022-11-15T12:18:51;10.90;99.90
28171;DHT22;15458;53.346;-1.688;2022-11-15T12:26:51;11.00;99.90
28171;DHT22;15458;53.346;-1.688;2022-11-15T12:29:38;10.90;99.90
28171;DHT22;15458;53.346;-1.688;2022-11-15T12:32:52;11.00;99.90
28171;DHT22;15458;53.346;-1.688;2022-11-15T12:34:53;11.00;99.90
28171;DHT22;15458;53.346;-1.688;2022-11-15T12:42:44;11.00;99.90
28171;DHT22;15458;53.346;-1.688;2022-11-15T12:47:50;11.10;99.90
28171;DHT22;15458;53.346;-1.688;2022-11-15T12:50:16;11.10;99.90
28171;DHT22;15458;53.346;-1.688;2022-11-15T12:53:26;11.00;99.90
28171;DHT22;15458;53.346;-1.688;2022-11-15T12:58:50;11.10;99.90
28171;DHT22;15458;53.346;-1.688;2022-11-15T13:11:58;11.00;99.90
28171;DHT22;15458;53.346;-1.688;2022-11-15T13:14:43;11.10;99.90
28171;DHT22;15458;53.346;-1.688;2022-11-15T13:17:35;11.10;99.90
28171;DHT22;15458;53.346;-1.688;2022-11-15T13:22:41;11.10;99.90
28171;DHT22;15458;53.346;-1.688;2022-11-15T13:25:33;11.10;99.90
28171;DHT22;15458;53.346;-1.688;2022-11-15T13:33:24;11.10;99.90
28171;DHT22;15458;53.346;-1.688;2022-11-15T13:36:03;11.10;99.90
28171;DHT22;15458;53.346;-1.688;2022-11-15T13:38:35;11.10;99.90
28171;DHT22;15458;53.346;-1.688;2022-11-15T13:41:24;11.10;99.90
28171;DHT22;15458;53.346;-1.688;2022-11-15T13:43:52;11.10;99.90
28171;DHT22;15458;53.346;-1.688;2022-11-15T13:49:11;11.10;99.90
28171;DHT22;15458;53.346;-1.688;2022-11-15T13:51:46;11.20;99.90
28171;DHT22;15458;53.346;-1.688;2022-11-15T13:56:51;11.20;99.90
28171;DHT22;15458;53.346;-1.688;2022-11-15T13:59:33;11.20;99.90
28171;DHT22;15458;53.346;-1.688;2022-11-15T14:02:03;11.30;99.90
28171;DHT22;15458;53.346;-1.688;2022-11-15T14:04:38;11.30;99.90
28171;DHT22;15458;53.346;-1.688;2022-11-15T14:07:04;11.30;99.90
28171;DHT22;15458;53.346;-1.688;2022-11-15T14:09:36;11.30;99.90
28171;DHT22;15458;53.346;-1.688;2022-11-15T14:14:53;11.30;99.90
28171;DHT22;15458;53.346;-1.688;2022-11-15T14:17:35;11.30;99.90
28171;DHT22;15458;53.346;-1.688;2022-11-15T14:20:02;11.20;99.90
28171;DHT22;15458;53.346;-1.688;2022-11-15T14:22:52;11.20;99.90
28171;DHT22;15458;53.346;-1.688;2022-11-15T14:25:38;11.30;99.90
28171;DHT22;15458;53.346;-1.688;2022-11-15T14:30:42;11.20;99.90
28171;DHT22;15458;53.346;-1.688;2022-11-15T14:33:35;11.10;99.90
28171;DHT22;15458;53.346;-1.688;2022-11-15T14:38:40;11.10;99.90
28171;DHT22;15458;53.346;-1.688;2022-11-15T14:41:25;11.10;99.90
28171;DHT22;15458;53.346;-1.688;2022-11-15T14:43:52;11.10;99.90
28171;DHT22;15458;53.346;-1.688;2022-11-15T14:46:19;11.10;99.90
28171;DHT22;15458;53.346;-1.688;2022-11-15T14:48:45;11.00;99.90
28171;DHT22;15458;53.346;-1.688;2022-11-15T14:51:16;11.00;99.90
28171;DHT22;15458;53.346;-1.688;2022-11-15T14:53:43;11.00;99.90
28171;DHT22;15458;53.346;-1.688;2022-11-15T14:56:10;10.90;99.90
28171;DHT22;15458;53.346;-1.688;2022-11-15T14:58:35;10.80;99.90
28171;DHT22;15458;53.346;-1.688;2022-11-15T15:01:15;10.80;99.90
28171;DHT22;15458;53.346;-1.688;2022-11-15T15:03:42;10.70;99.90
28171;DHT22;15458;53.346;-1.688;2022-11-15T15:06:09;10.60;99.90
28171;DHT22;15458;53.346;-1.688;2022-11-15T15:08:35;10.50;99.90
28171;DHT22;15458;53.346;-1.688;2022-11-15T15:11:01;10.50;99.90
28171;DHT22;15458;53.346;-1.688;2022-11-15T15:13:26;10.40;99.90
28171;DHT22;15458;53.346;-1.688;2022-11-15T15:15:54;10.40;99.90
28171;DHT22;15458;53.346;-1.688;2022-11-15T15:18:19;10.40;99.90
28171;DHT22;15458;53.346;-1.688;2022-11-15T15:20:58;10.30;99.90
28171;DHT22;15458;53.346;-1.688;2022-11-15T15:23:33;10.30;99.90
28171;DHT22;15458;53.346;-1.688;2022-11-15T15:26:00;10.30;99.90
28171;DHT22;15458;53.346;-1.688;2022-11-15T15:28:26;10.30;99.90
28171;DHT22;15458;53.346;-1.688;2022-11-15T15:30:52;10.20;99.90
28171;DHT22;15458;53.346;-1.688;2022-11-15T15:33:18;10.20;99.90
28171;DHT22;15458;53.346;-1.688;2022-11-15T15:35:43;10.20;99.90
28171;DHT22;15458;53.346;-1.688;2022-11-15T15:38:12;10.10;99.90
28171;DHT22;15458;53.346;-1.688;2022-11-15T15:40:38;10.00;99.90
28171;DHT22;15458;53.346;-1.688;2022-11-15T15:43:04;10.00;99.90
28171;DHT22;15458;53.346;-1.688;2022-11-15T15:45:38;10.00;99.90
28171;DHT22;15458;53.346;-1.688;2022-11-15T15:48:05;9.90;99.90
28171;DHT22;15458;53.346;-1.688;2022-11-15T15:50:35;9.80;99.90
28171;DHT22;15458;53.346;-1.688;2022-11-15T15:53:02;9.70;99.90
28171;DHT22;15458;53.346;-1.688;2022-11-15T15:55:30;9.70;99.90
28171;DHT22;15458;53.346;-1.688;2022-11-15T15:57:58;9.60;99.90
28171;DHT22;15458;53.346;-1.688;2022-11-15T16:00:25;9.60;99.90
28171;DHT22;15458;53.346;-1.688;2022-11-15T16:02:52;9.50;99.90
28171;DHT22;15458;53.346;-1.688;2022-11-15T16:05:22;9.50;99.90
28171;DHT22;15458;53.346;-1.688;2022-11-15T16:07:48;9.50;99.90
28171;DHT22;15458;53.346;-1.688;2022-11-15T16:12:46;9.50;99.90
28171;DHT22;15458;53.346;-1.688;2022-11-15T16:15:12;9.50;99.90
28171;DHT22;15458;53.346;-1.688;2022-11-15T16:17:43;9.40;99.90
28171;DHT22;15458;53.346;-1.688;2022-11-15T16:20:32;9.40;99.90
28171;DHT22;15458;53.346;-1.688;2022-11-15T16:22:58;9.40;99.90
28171;DHT22;15458;53.346;-1.688;2022-11-15T16:25:25;9.40;99.90
28171;DHT22;15458;53.346;-1.688;2022-11-15T16:27:51;9.40;99.90
28171;DHT22;15458;53.346;-1.688;2022-11-15T16:30:21;9.40;99.90
28171;DHT22;15458;53.346;-1.688;2022-11-15T16:32:47;9.40;99.90
28171;DHT22;15458;53.346;-1.688;2022-11-15T16:35:14;9.40;99.90
28171;DHT22;15458;53.346;-1.688;2022-11-15T16:37:43;9.40;99.90
28171;DHT22;15458;53.346;-1.688;2022-11-15T16:40:32;9.40;99.90
28171;DHT22;15458;53.346;-1.688;2022-11-15T16:42:58;9.50;99.90
28171;DHT22;15458;53.346;-1.688;2022-11-15T16:45:25;9.40;99.90
28171;DHT22;15458;53.346;-1.688;2022-11-15T16:47:55;9.40;99.90
28171;DHT22;15458;53.346;-1.688;2022-11-15T16:50:29;9.40;99.90
28171;DHT22;15458;53.346;-1.688;2022-11-15T16:52:58;9.40;99.90
28171;DHT22;15458;53.346;-1.688;2022-11-15T16:55:26;9.40;99.90
28171;DHT22;15458;53.346;-1.688;2022-11-15T16:57:53;9.30;99.90
28171;DHT22;15458;53.346;-1.688;2022-11-15T17:00:20;9.30;99.90
28171;DHT22;15458;53.346;-1.688;2022-11-15T17:02:47;9.30;99.90
28171;DHT22;15458;53.346;-1.688;2022-11-15T17:05:15;9.30;99.90
28171;DHT22;15458;53.346;-1.688;2022-11-15T17:07:41;9.30;99.90
28171;DHT22;15458;53.346;-1.688;2022-11-15T17:10:09;9.40;99.90
28171;DHT22;15458;53.346;-1.688;2022-11-15T17:12:36;9.40;99.90
28171;DHT22;15458;53.346;-1.688;2022-11-15T17:15:02;9.50;99.90
28171;DHT22;15458;53.346;-1.688;2022-11-15T17:17:29;9.60;99.90
28171;DHT22;15458;53.346;-1.688;2022-11-15T17:19:55;9.60;99.90
28171;DHT22;15458;53.346;-1.688;2022-11-15T17:22:21;9.60;99.90
28171;DHT22;15458;53.346;-1.688;2022-11-15T17:24:46;9.60;99.90
28171;DHT22;15458;53.346;-1.688;2022-11-15T17:27:12;9.60;99.90
28171;DHT22;15458;53.346;-1.688;2022-11-15T17:29:38;9.60;99.90
28171;DHT22;15458;53.346;-1.688;2022-11-15T17:32:03;9.60;99.90
28171;DHT22;15458;53.346;-1.688;2022-11-15T17:34:29;9.50;99.90
28171;DHT22;15458;53.346;-1.688;2022-11-15T17:36:55;9.50;99.90
28171;DHT22;15458;53.346;-1.688;2022-11-15T17:39:20;9.40;99.90
28171;DHT22;15458;53.346;-1.688;2022-11-15T17:41:48;9.30;99.90
28171;DHT22;15458;53.346;-1.688;2022-11-15T17:44:14;9.30;99.90
28171;DHT22;15458;53.346;-1.688;2022-11-15T17:46:40;9.20;99.90
28171;DHT22;15458;53.346;-1.688;2022-11-15T17:49:06;9.20;99.90
28171;DHT22;15458;53.346;-1.688;2022-11-15T17:51:31;9.20;99.90